This is the latest recevied weather packets stored in our database for station/object IZ1DME-3. If no packets are shown the sender has not sent any weather packets the latest 10 day(s).
| Time | Temp. | Humidity | Pressure | Rain* | Wind** | Luminosity | Snow |
|---|---|---|---|---|---|---|---|
| 1788262660 | 84° F | 34% | 763.9 mmHg | - | - | - | - |
| 1788261160 | 82° F | 36% | 764.1 mmHg | - | - | - | - |
| 1788259660 | 81° F | 38% | 764.3 mmHg | - | - | - | - |
| 1788258160 | 79° F | 39% | 764.6 mmHg | - | - | - | - |
| 1788256661 | 78° F | 40% | 764.8 mmHg | - | - | - | - |
| 1788255160 | 77° F | 40% | 764.8 mmHg | - | - | - | - |
| 1788253661 | 75° F | 42% | 765 mmHg | - | - | - | - |
| 1788252160 | 74° F | 40% | 765.1 mmHg | - | - | - | - |
| 1788250663 | 74° F | 40% | 764.9 mmHg | - | - | - | - |
| 1788249160 | 72° F | 39% | 764.8 mmHg | - | - | - | - |
| 1788247660 | 71° F | 39% | 764.9 mmHg | - | - | - | - |
| 1788246160 | 69° F | 40% | 765.1 mmHg | - | - | - | - |
| 1788244660 | 68° F | 40% | 765 mmHg | - | - | - | - |
| 1788243160 | 67° F | 41% | 765 mmHg | - | - | - | - |
| 1788241660 | 64° F | 46% | 765.2 mmHg | - | - | - | - |
| 1788240160 | 65° F | 42% | 764.8 mmHg | - | - | - | - |
| 1788238660 | 64° F | 46% | 764.6 mmHg | - | - | - | - |
| 1788237160 | 64° F | 45% | 764.5 mmHg | - | - | - | - |
| 1788235660 | 66° F | 43% | 764.2 mmHg | - | - | - | - |
| 1788234160 | 68° F | 39% | 763.9 mmHg | - | - | - | - |
| 1788232660 | 67° F | 40% | 763.9 mmHg | - | - | - | - |
| 1788231160 | 67° F | 40% | 763.9 mmHg | - | - | - | - |
| 1788229660 | 68° F | 40% | 763.8 mmHg | - | - | - | - |
| 1788228160 | 68° F | 41% | 763.6 mmHg | - | - | - | - |
| 1788226660 | 69° F | 40% | 763.5 mmHg | - | - | - | - |
* Rain since midnight (hover to see other rain measurements)
** Current wind speed in m/s (hover to see current wind gust speed)